METAR Data
IDs: Format: Raw Decoded Include TAF

Data at: 0022 UTC 26 Oct 2021

PASC 260011Z 06012KT 1/2SM R06/5000V6000FT -SN BLSN BR VV007 M02/M03 A2920 RMK AO2 T10171033 PNO $
PASC 252353Z 06014KT 1/2SM R06/3500FT -SN BLSN BR VV010 M02/M03 A2921 RMK AO2 SLP891 6//// T10171033 11017 21022 58010 PNO $
PASC 252337Z 06014KT 1/2SM R06/3500V4000FT -SN BLSN BR VV011 M02/M03 A2921 RMK AO2 T10221033 PNO
PASC 252305Z 06014KT 1/2SM R06/3500V4000FT -SN BLSN BR VV009 M02/M03 A2921 RMK AO2 T10221033 PNO
PASC 252258Z 06014KT 1/4SM R06/3500V4000FT -SN BLSN BR VV009 M02/M03 A2922 RMK AO2 T10221033 PNO
PASC 252253Z 07015KT 1/2SM R06/3500V4000FT -SN BLSN BR VV010 M02/M03 A2922 RMK AO2 SLP894 T10221033 PNO
PASC 252219Z 07015KT 1SM R06/4500V5000FT -SN BLSN BR VV013 M02/M03 A2922 RMK AO2 T10221033 PNO
PASC 252153Z 06016KT 1SM R06/5000VP6000FT -SN BLSN BR FEW004 OVC019 M02/M03 A2923 RMK AO2 SLP898 T10221033 PNO
PASC 252139Z 06016KT 1SM R06/4500V5000FT -SN BLSN BR FEW004 OVC020 M02/M03 A2923 RMK AO2 T10221033 PNO
PASC 252104Z 06016KT 1SM R06/4500VP6000FT -SN BLSN BR VV015 M02/M03 A2923 RMK AO2 T10221033 PNO
PASC 252053Z 08014KT 3/4SM R06/3500V4000FT -SN BLSN BR VV011 M02/M03 A2924 RMK AO2 SLP901 6//// T10221033 56011 PNO
PASC 252032Z 08014KT 3/4SM R06/3000V4000FT -SN BLSN BR VV012 M02/M03 A2924 RMK AO2 T10221033 PNO
PASC 251953Z 08017KT 1 3/4SM -SN BLSN BR OVC025 M02/M03 A2925 RMK AO2 SLP905 T10221033 PNO
PASC 251853Z 08017KT 2SM -SN BLSN BR FEW004 OVC021 M02/M03 A2926 RMK AO2 SLP909 T10221033 PNO
PASC 251753Z 07015KT 1 1/4SM -SN BLSN BR OVC020 M02/M04 A2927 RMK AO2 SNB31 SLP912 6//// I6001 T10221039 11022 21033 56016 PNO
PASC 251741Z 08015KT 1 1/4SM -SN BR SCT015 OVC022 M02/M04 A2927 RMK AO2 SNB31 T10221039 PNO
PASC 251653Z 08013KT 4SM BR SCT007 OVC012 M03/M04 A2929 RMK AO2 SNB27E37 SLP918 I1001 T10281039 PNO $
PASC 251553Z 07013KT 7SM OVC014 M03/M04 A2930 RMK AO2 SNB05E18 SLP922 T10281039 PNO $
PASC 251532Z 07011KT 9SM OVC013 M03/M04 A2931 RMK AO2 SNB05E18 T10281044 PNO $
PASC 251506Z 07011KT 3SM -SN BR OVC008 M03/M04 A2931 RMK AO2 SNB05 T10281039 PNO $
PASC 251453Z 07011KT 6SM BR OVC010 M03/M04 A2932 RMK AO2 SLP929 6//// T10281044 56012 PNO $
PASC 251420Z 09011KT 10SM OVC010 M03/M05 A2933 RMK AO2 T10281050 PNO $
PASC 251353Z 06013KT 10SM OVC008 M03/M05 A2933 RMK AO2 SLP934 T10331050 PNO $
PASC 251350Z 06013KT 10SM OVC008 M03/M05 A2933 RMK AO2 PNO $
PASC 251318Z 06011KT 9SM OVC011 M03/M05 A2934 RMK AO2 T10331050 PNO $
PASC 251253Z 06012KT 10SM OVC009 M03/M05 A2935 RMK AO2 SLP941 T10331050 PNO $
PASC 251153Z 06012KT 10SM OVC010 M03/M06 A2936 RMK AO2 SLP944 6//// 7//// T10331056 11033 21039 58015 PNO $
PASC 251118Z 09010KT 10SM OVC010 M04/M06 A2937 RMK AO2 CIG 007V013 T10391056 PNO $
PASC 251053Z 09007KT 10SM OVC007 M04/M06 A2938 RMK AO2 SLP951 T10391056 PNO $
PASC 250953Z 09007KT 10SM OVC007 M04/M05 A2940 RMK AO2 SLP955 T10391050 PNO $
PASC 250853Z 08005KT 10SM OVC008 M04/M06 A2941 RMK AO2 SLP959 6//// T10391056 410221039 56009 PNO $
PASC 250830Z 09009KT 10SM OVC009 M04/M06 A2941 RMK AO2 T10391056 PNO $
PASC 250753Z 09010KT 10SM OVC011 M03/M05 A2941 RMK AO2 SLP960 T10331050 PNO $
PASC 250653Z 07006KT 10SM OVC012 M03/M05 A2942 RMK AO2 SLP964 T10331050 PNO $
PASC 250553Z 08005KT 10SM OVC013 M03/M05 A2943 RMK AO2 SLP968 6//// T10331050 11028 21033 56013 PNO $
PASC 250500Z 08005KT 10SM OVC013 M03/M04 A2944 RMK AO2 T10331044 PNO $
PASC 250453Z 10003KT 10SM BKN003 OVC013 M03/M04 A2944 RMK AO2 SLP971 T10331044 PNO $
PASC 250353Z 13004KT 10SM BKN003 OVC013 M03/M04 A2946 RMK AO2 SLP976 T10331044 PNO $
PASC 250253Z 23003KT 10SM BKN004 OVC017 M03/M04 A2947 RMK AO2 SLP980 6//// T10331044 56004 PNO $
PASC 250153Z 24005KT 10SM BKN004 OVC018 M03/M04 A2947 RMK AO2 SLP981 T10331039 PNO $
PASC 250053Z 24005KT 10SM SCT004 OVC018 M03/M04 A2947 RMK AO2 SLP980 T10331044 PNO $
PASC 250033Z 24005KT 10SM SCT005 OVC018 M03/M04 A2947 RMK AO2 T10331044 PNO $
PASC 250016Z 24005KT 10SM BKN005 OVC018 M03/M04 A2948 RMK AO2 T10331044 PNO $
PASC 242353Z 23006KT 10SM BKN004 OVC021 M03/M04 A2948 RMK AO2 SLP985 6//// I6001 T10331044 11028 21033 58005 PNO /
PASC 242310Z AUTO 23006KT 10SM BKN004 OVC021 M03/M04 A2949 RMK AO2 T10331039 FZRANO TSNO PNO $
PASC 242253Z 24006KT 10SM SCT005 BKN008 OVC021 M03/M04 A2949 RMK AO2 SLP988 T10331039 PNO $
PASC 242153Z 24008KT 6SM BR SCT003 BKN008 OVC023 M03/M04 A2950 RMK AO2 SLP989 T10331044 PNO $
PASC 242142Z 24008KT 6SM BR SCT003 BKN008 OVC023 M03/M04 A2950 RMK AO2 T10331044 PNO $
PASC 242053Z 24008KT 5SM BR OVC003 M03/M04 A2950 RMK AO2 SLP990 6//// I3001 T10331044 52003 PNO $
PASC 241953Z 22006KT 5SM BR OVC003 M03/M04 A2950 RMK AO2 SLP990 T10331044 PNO $
PASC 241853Z 23006KT 6SM BR OVC003 M03/M04 A2949 RMK AO2 SLP987 I1001 T10331044 PNO $
PASC 241753Z 26004KT 3SM BR OVC003 M03/M03 A2949 RMK AO2 SLP987 6//// I1001 I6003 T10281033 11022 21028 53003 PNO $
PASC 241708Z 26004KT 3SM BR BKN002 OVC008 M02/M03 A2948 RMK AO2 T10221033 PNO $
PASC 241653Z 27003KT 7SM OVC008 M02/M03 A2948 RMK AO2 SLP985 T10221033 PNO $
PASC 241553Z 26007KT 10SM SCT017 BKN021 OVC029 M03/M04 A2949 RMK AO2 SLP986 T10281039 PNO $
PASC 241453Z 25007KT 10SM OVC021 M03/M03 A2948 RMK AO2 SLP984 6//// I1000 I3002 T10281033 53010 PNO $
PASC 241402Z 25007KT 10SM OVC011 M02/M03 A2947 RMK AO2 I1000 T10221033 PNO $
PASC 241353Z 26007KT 10SM OVC009 M02/M03 A2947 RMK AO2 SLP979 I1001 T10221033 PNO $
PASC 241336Z 26007KT 5SM BR BKN006 OVC009 M02/M03 A2947 RMK AO2 I1001 T10221033 PNO $
PASC 241310Z 26008KT 4SM BR OVC004 M02/M03 A2946 RMK AO2 I1001 T10221028 PNO $
PASC 241300Z 26008KT 3SM BR OVC005 M02/M03 A2946 RMK AO2 I1000 T10221028 PNO $
PASC 241253Z 25007KT 3SM BR BKN003 OVC007 M02/M03 A2946 RMK AO2 SLP977 I1001 T10221028 PNO $